sensor_id;sensor_type;location;lat;lon;timestamp;pressure;altitude;pressure_sealevel;temperature;humidity
12073;BME280;6098;49.004;8.372;2022-09-25T00:00:27;99999.33;;;14.93;97.92
12073;BME280;6098;49.004;8.372;2022-09-25T00:15:19;99994.97;;;14.84;98.30
12073;BME280;6098;49.004;8.372;2022-09-25T00:30:11;99984.07;;;14.74;98.08
12073;BME280;6098;49.004;8.372;2022-09-25T00:45:06;99972.63;;;14.72;98.18
12073;BME280;6098;49.004;8.372;2022-09-25T01:00:00;99970.87;;;14.71;98.17
12073;BME280;6098;49.004;8.372;2022-09-25T01:14:49;99954.63;;;14.68;98.52
12073;BME280;6098;49.004;8.372;2022-09-25T01:44:45;99961.23;;;14.62;99.10
12073;BME280;6098;49.004;8.372;2022-09-25T01:59:48;99962.47;;;14.56;98.90
12073;BME280;6098;49.004;8.372;2022-09-25T02:14:49;99950.91;;;14.57;99.22
12073;BME280;6098;49.004;8.372;2022-09-25T02:29:41;99955.44;;;14.55;99.34
12073;BME280;6098;49.004;8.372;2022-09-25T03:14:26;99939.14;;;14.53;98.69
12073;BME280;6098;49.004;8.372;2022-09-25T03:29:18;99943.17;;;14.52;98.74
12073;BME280;6098;49.004;8.372;2022-09-25T03:44:09;99945.58;;;14.50;98.76
12073;BME280;6098;49.004;8.372;2022-09-25T03:59:01;99939.84;;;14.49;99.21
12073;BME280;6098;49.004;8.372;2022-09-25T04:13:52;99947.05;;;14.47;99.23
12073;BME280;6098;49.004;8.372;2022-09-25T04:28:44;99938.14;;;14.48;99.34
12073;BME280;6098;49.004;8.372;2022-09-25T04:43:36;99946.17;;;14.40;98.87
12073;BME280;6098;49.004;8.372;2022-09-25T04:58:27;99949.64;;;14.41;99.10
12073;BME280;6098;49.004;8.372;2022-09-25T05:13:18;99959.41;;;14.26;98.69
12073;BME280;6098;49.004;8.372;2022-09-25T05:28:10;99962.94;;;14.34;99.94
12073;BME280;6098;49.004;8.372;2022-09-25T05:43:02;99951.98;;;14.32;100.00
12073;BME280;6098;49.004;8.372;2022-09-25T05:57:58;99958.38;;;14.37;100.00
12073;BME280;6098;49.004;8.372;2022-09-25T06:12:46;99965.41;;;14.38;99.85
12073;BME280;6098;49.004;8.372;2022-09-25T06:27:38;99976.48;;;14.46;99.11
12073;BME280;6098;49.004;8.372;2022-09-25T06:42:30;99986.45;;;14.50;99.13
12073;BME280;6098;49.004;8.372;2022-09-25T06:57:22;99987.52;;;14.47;98.64
12073;BME280;6098;49.004;8.372;2022-09-25T07:27:04;100000.18;;;14.43;96.10
12073;BME280;6098;49.004;8.372;2022-09-25T07:41:56;99991.78;;;14.50;94.43
12073;BME280;6098;49.004;8.372;2022-09-25T07:56:49;99984.88;;;14.68;94.06
12073;BME280;6098;49.004;8.372;2022-09-25T08:11:40;99984.53;;;14.80;93.11
12073;BME280;6098;49.004;8.372;2022-09-25T08:26:31;99989.55;;;14.93;92.00
12073;BME280;6098;49.004;8.372;2022-09-25T08:41:28;99984.67;;;15.13;90.24
12073;BME280;6098;49.004;8.372;2022-09-25T08:56:21;99989.89;;;15.43;88.14
12073;BME280;6098;49.004;8.372;2022-09-25T09:41:17;99987.88;;;16.00;86.01
12073;BME280;6098;49.004;8.372;2022-09-25T10:11:04;99988.50;;;15.84;85.23
12073;BME280;6098;49.004;8.372;2022-09-25T10:25:53;99981.78;;;15.65;93.28
12073;BME280;6098;49.004;8.372;2022-09-25T10:40:44;99981.73;;;15.45;92.12
12073;BME280;6098;49.004;8.372;2022-09-25T10:55:37;99980.82;;;15.38;93.28
12073;BME280;6098;49.004;8.372;2022-09-25T11:10:32;99993.88;;;15.36;93.19
12073;BME280;6098;49.004;8.372;2022-09-25T11:25:34;100008.48;;;15.30;93.08
12073;BME280;6098;49.004;8.372;2022-09-25T12:56:49;99960.28;;;16.31;83.61
12073;BME280;6098;49.004;8.372;2022-09-25T13:26:46;99937.19;;;16.43;84.24
12073;BME280;6098;49.004;8.372;2022-09-25T13:41:54;99947.84;;;16.62;83.44
12073;BME280;6098;49.004;8.372;2022-09-25T13:57:01;99945.39;;;16.85;83.59
12073;BME280;6098;49.004;8.372;2022-09-25T14:11:59;99941.62;;;17.18;80.59
12073;BME280;6098;49.004;8.372;2022-09-25T14:26:46;99936.27;;;17.11;79.33
12073;BME280;6098;49.004;8.372;2022-09-25T14:56:37;99932.18;;;17.37;73.44
12073;BME280;6098;49.004;8.372;2022-09-25T15:11:38;99935.35;;;17.18;71.04
12073;BME280;6098;49.004;8.372;2022-09-25T15:26:32;99944.17;;;16.58;74.57
12073;BME280;6098;49.004;8.372;2022-09-25T15:41:22;99956.50;;;16.09;81.39
12073;BME280;6098;49.004;8.372;2022-09-25T15:56:21;99955.05;;;15.44;84.65
12073;BME280;6098;49.004;8.372;2022-09-25T16:11:28;99965.76;;;15.10;84.98
12073;BME280;6098;49.004;8.372;2022-09-25T16:26:21;99979.36;;;14.78;88.71
12073;BME280;6098;49.004;8.372;2022-09-25T16:56:01;99982.02;;;14.57;90.40
12073;BME280;6098;49.004;8.372;2022-09-25T17:10:52;99990.72;;;14.53;90.51
12073;BME280;6098;49.004;8.372;2022-09-25T17:25:46;99994.62;;;14.54;92.46
12073;BME280;6098;49.004;8.372;2022-09-25T17:40:36;100010.05;;;14.49;92.66
12073;BME280;6098;49.004;8.372;2022-09-25T17:55:27;100018.15;;;14.48;89.24
12073;BME280;6098;49.004;8.372;2022-09-25T18:10:19;100029.95;;;14.51;90.05
12073;BME280;6098;49.004;8.372;2022-09-25T18:25:11;100046.23;;;14.54;89.89
12073;BME280;6098;49.004;8.372;2022-09-25T18:40:02;100053.39;;;14.53;90.74
12073;BME280;6098;49.004;8.372;2022-09-25T18:54:53;100063.89;;;14.56;93.80
12073;BME280;6098;49.004;8.372;2022-09-25T19:09:45;100070.63;;;14.54;96.34
12073;BME280;6098;49.004;8.372;2022-09-25T19:24:36;100064.39;;;14.47;95.41
12073;BME280;6098;49.004;8.372;2022-09-25T19:39:28;100065.14;;;14.42;95.72
12073;BME280;6098;49.004;8.372;2022-09-25T19:54:19;100070.20;;;14.39;95.92
12073;BME280;6098;49.004;8.372;2022-09-25T20:09:10;100067.09;;;14.31;95.44
12073;BME280;6098;49.004;8.372;2022-09-25T20:24:02;100062.95;;;14.26;96.58
12073;BME280;6098;49.004;8.372;2022-09-25T20:38:53;100057.59;;;14.19;97.64
12073;BME280;6098;49.004;8.372;2022-09-25T20:53:47;100064.96;;;14.07;97.30
12073;BME280;6098;49.004;8.372;2022-09-25T21:08:35;100049.35;;;14.01;97.56
12073;BME280;6098;49.004;8.372;2022-09-25T21:23:31;100060.17;;;13.98;98.09
12073;BME280;6098;49.004;8.372;2022-09-25T21:38:23;100053.14;;;13.89;98.58
12073;BME280;6098;49.004;8.372;2022-09-25T21:53:14;100040.28;;;13.89;99.36
12073;BME280;6098;49.004;8.372;2022-09-25T22:08:05;100045.13;;;13.82;99.74
12073;BME280;6098;49.004;8.372;2022-09-25T22:22:56;100029.36;;;13.71;99.22
12073;BME280;6098;49.004;8.372;2022-09-25T22:37:47;100020.91;;;13.56;99.15
12073;BME280;6098;49.004;8.372;2022-09-25T22:52:38;100009.60;;;13.43;99.14
12073;BME280;6098;49.004;8.372;2022-09-25T23:07:29;100012.01;;;13.32;99.07
12073;BME280;6098;49.004;8.372;2022-09-25T23:22:20;100001.97;;;13.22;99.31
12073;BME280;6098;49.004;8.372;2022-09-25T23:37:11;99987.13;;;13.09;99.57
12073;BME280;6098;49.004;8.372;2022-09-25T23:52:02;99982.12;;;12.95;99.71
